WetterOnline ( https://www.wetteronline.ch )

Wetter aktuell Sonthofen/Oberallgäu

Aktuelles Wetter: Oberstdorf (812m)

6-stündlich | Neueste Meldungen
Ortszeit Temperatur Wetter
Di, 25.06. 20:00 25.4° C wolkenlos
Di, 25.06. 14:00 30.2° C wolkenlos
Di, 25.06. 8:00 16.2° C wolkenlos
Di, 25.06. 2:00 14.2° C wolkenlos
Mo, 24.06. 20:00 24.7° C leicht bewölkt
Mo, 24.06. 14:00 27.2° C wolkenlos
Mo, 24.06. 8:00 16.1° C leicht bewölkt
Mo, 24.06. 2:00 11.9° C leicht bewölkt
Ortszeit Temperatur Wetter
Di, 25.06. 21:30 21.6° C leicht bewölkt
Di, 25.06. 21:20 21.6° C leicht bewölkt
Di, 25.06. 21:10 22.5° C leicht bewölkt
Di, 25.06. 21:00 23.9° C wolkenlos
Di, 25.06. 20:50 23.9° C wolkenlos
Di, 25.06. 20:40 23.9° C wolkenlos
Di, 25.06. 20:30 24.6° C wolkenlos
Di, 25.06. 20:00 25.4° C wolkenlos
Di, 25.06. 19:30 29.4° C fast wolkenlos
Di, 25.06. 19:00 30.5° C fast wolkenlos
Di, 25.06. 18:30 30.7° C wolkenlos
Ortszeit Relative Feuchte Sichtweite
Di, 25.06. 20:00 62% 30 km
Di, 25.06. 14:00 41% 45 km
Di, 25.06. 8:00 72% 55 km
Di, 25.06. 2:00 92% 35 km
Mo, 24.06. 20:00 71% 60 km
Mo, 24.06. 14:00 48% 29 km
Mo, 24.06. 8:00 83% 35 km
Mo, 24.06. 2:00 96% 17 km
Ortszeit Relative Feuchte Sichtweite
Di, 25.06. 21:30 70% 40 km
Di, 25.06. 21:20 70% -
Di, 25.06. 21:10 66% -
Di, 25.06. 21:00 60% 40 km
Di, 25.06. 20:50 60% -
Di, 25.06. 20:40 62% -
Di, 25.06. 20:30 62% 40 km
Di, 25.06. 20:00 62% 30 km
Di, 25.06. 19:30 49% 45 km
Di, 25.06. 19:00 43% 40 km
Di, 25.06. 18:30 42% 26 km
Ortszeit Niederschlagsmenge Niederschlagsart
Di, 25.06. 20:00 0.1 l/m2 in 12 Std. Regen
Di, 25.06. 14:00 0.1 l/m2 in 6 Std. Regen
Di, 25.06. 8:00 0.0 l/m2 in 12 Std. -
Di, 25.06. 2:00 0.0 l/m2 in 6 Std. -
Mo, 24.06. 20:00 0.0 l/m2 in 12 Std. -
Mo, 24.06. 14:00 0.0 l/m2 in 6 Std. -
Mo, 24.06. 8:00 0.0 l/m2 in 12 Std. -
Mo, 24.06. 2:00 0.0 l/m2 in 6 Std. -
Ortszeit Niederschlagsmenge Niederschlagsart
Di, 25.06. 21:30 0.0 l/m2 in 1 Std. -
Di, 25.06. 21:20 keine Meldung -
Di, 25.06. 21:10 keine Meldung -
Di, 25.06. 21:00 0.0 l/m2 in 1 Std. -
Di, 25.06. 20:50 keine Meldung -
Di, 25.06. 20:40 keine Meldung -
Di, 25.06. 20:30 0.0 l/m2 in 1 Std. -
Di, 25.06. 20:00 0.0 l/m2 in 1 Std. Regen
Di, 25.06. 19:30 0.0 l/m2 in 1 Std. -
Di, 25.06. 19:00 0.1 l/m2 in 1 Std. Regen
Di, 25.06. 18:30 0.0 l/m2 in 1 Std. -
Ortszeit Stärke Spitze Richtung
km/h Bft. km/h Grad Sektor
Di, 25.06. 20:00 11 2 25 150° SO
Di, 25.06. 14:00 11 2 18 360° N
Di, 25.06. 8:00 4 1 11 150° SO
Di, 25.06. 2:00 7 2 15 160° S
Mo, 24.06. 20:00 4 1 29 280° W
Mo, 24.06. 14:00 14 3 25 350° N
Mo, 24.06. 8:00 4 1 11 200° S
Mo, 24.06. 2:00 6 1 13 180° S
Ortszeit Stärke Spitze Richtung
km/h Bft. km/h Grad Sektor
Di, 25.06. 21:30 11 2 19 170° S
Di, 25.06. 21:20 11 2 - 170° S
Di, 25.06. 21:10 15 3 - 160° S
Di, 25.06. 21:00 14 3 18 160° S
Di, 25.06. 20:50 14 3 - 160° S
Di, 25.06. 20:40 13 3 - 160° S
Di, 25.06. 20:30 13 3 19 160° S
Di, 25.06. 20:00 11 2 18 150° SO
Di, 25.06. 19:30 6 1 13 270° W
Di, 25.06. 19:00 7 2 25 290° W
Di, 25.06. 18:30 14 3 25 350° N
Ortszeit Untergrenze Bedeckung Gattung
total tief tief mittel hoch
Di, 25.06. 20:00 - 0/8 0/8 - - -
Di, 25.06. 14:00 - 0/8 0/8 - - -
Di, 25.06. 8:00 - 0/8 0/8 - - -
Di, 25.06. 2:00 - 0/8 0/8 - - -
Mo, 24.06. 20:00 9000 m 4/8 0/8 - - -
Mo, 24.06. 14:00 - 0/8 0/8 - - -
Mo, 24.06. 8:00 10500 m 3/8 0/8 - - -
Mo, 24.06. 2:00 10500 m 3/8 0/8 - - -
Ortszeit Bedeckungsgrad in Achtel und Wolkenuntergrenze
Di, 25.06. 21:30 3(9000m)
Di, 25.06. 21:20 3(9000m)
Di, 25.06. 21:10 1(9000m) 3(9000m)
Di, 25.06. 21:00 1(9000m)
Di, 25.06. 20:50 keine Wolken
Di, 25.06. 20:40 keine Wolken
Di, 25.06. 20:30 keine Wolken
Di, 25.06. 20:00 keine Wolken
Di, 25.06. 19:30 2(9000m)
Di, 25.06. 19:00 2(9000m)
Di, 25.06. 18:30 keine Wolken
Ortszeit Stationsdruck (hPa) Tendenz (hPa in 3 Std.)
Di, 25.06. 20:00 931 + 0,7
Di, 25.06. 14:00 930 + 0,5
Di, 25.06. 8:00 929 + 0,5
Di, 25.06. 2:00 929 - 0,2
Mo, 24.06. 20:00 928 + 0,3
Mo, 24.06. 14:00 927 - 0,4
Mo, 24.06. 8:00 928 + 0,4
Mo, 24.06. 2:00 928 + 0,4
Ortszeit Stationsdruck (hPa) Tendenz (hPa in 3 Std.)
Di, 25.06. 21:30 931 + 0,8
Di, 25.06. 21:20 931 keine Meldung
Di, 25.06. 21:10 931 keine Meldung
Di, 25.06. 21:00 931 + 0,7
Di, 25.06. 20:50 931 keine Meldung
Di, 25.06. 20:40 931 keine Meldung
Di, 25.06. 20:30 931 + 0,7
Di, 25.06. 20:00 931 + 0,7
Di, 25.06. 19:30 930 + 0,5
Di, 25.06. 19:00 930 + 0,4
Di, 25.06. 18:30 930 + 0,2
Ortszeit Schneehöhe (cm)
Di, 25.06. 20:00 -
Di, 25.06. 14:00 -
Di, 25.06. 8:00 -
Di, 25.06. 2:00 -
Mo, 24.06. 20:00 -
Mo, 24.06. 14:00 -
Mo, 24.06. 8:00 -
Mo, 24.06. 2:00 -
Ortszeit Schneehöhe (cm)
Di, 25.06. 21:30 -
Di, 25.06. 21:20 -
Di, 25.06. 21:10 -
Di, 25.06. 21:00 -
Di, 25.06. 20:50 -
Di, 25.06. 20:40 -
Di, 25.06. 20:30 -
Di, 25.06. 20:00 -
Di, 25.06. 19:30 -
Di, 25.06. 19:00 -
Di, 25.06. 18:30 -
Link zu dieser Seite / Seite empfehlen

Das Wetter in ...